sensor_id;sensor_type;location;lat;lon;timestamp;P1;durP1;ratioP1;P2;durP2;ratioP2
17441;SDS011;8838;50.144;8.176;2022-12-11T00:00:36;42.80;;;23.77;;
17441;SDS011;8838;50.144;8.176;2022-12-11T00:03:05;52.23;;;24.60;;
17441;SDS011;8838;50.144;8.176;2022-12-11T00:05:32;47.10;;;24.10;;
17441;SDS011;8838;50.144;8.176;2022-12-11T00:08:00;46.70;;;23.67;;
17441;SDS011;8838;50.144;8.176;2022-12-11T00:10:27;46.83;;;24.20;;
17441;SDS011;8838;50.144;8.176;2022-12-11T00:12:56;43.83;;;23.40;;
17441;SDS011;8838;50.144;8.176;2022-12-11T00:15:23;45.23;;;23.07;;
17441;SDS011;8838;50.144;8.176;2022-12-11T00:17:50;45.47;;;23.10;;
17441;SDS011;8838;50.144;8.176;2022-12-11T00:20:17;48.00;;;24.57;;
17441;SDS011;8838;50.144;8.176;2022-12-11T00:22:44;45.70;;;23.67;;
17441;SDS011;8838;50.144;8.176;2022-12-11T00:25:12;46.63;;;24.20;;
17441;SDS011;8838;50.144;8.176;2022-12-11T00:27:39;49.13;;;24.97;;
17441;SDS011;8838;50.144;8.176;2022-12-11T00:30:06;46.43;;;23.97;;
17441;SDS011;8838;50.144;8.176;2022-12-11T00:32:34;47.60;;;24.03;;
17441;SDS011;8838;50.144;8.176;2022-12-11T00:35:00;48.43;;;25.37;;
17441;SDS011;8838;50.144;8.176;2022-12-11T00:37:27;47.77;;;24.87;;
17441;SDS011;8838;50.144;8.176;2022-12-11T00:39:54;50.80;;;24.90;;
17441;SDS011;8838;50.144;8.176;2022-12-11T00:42:22;47.80;;;25.33;;
17441;SDS011;8838;50.144;8.176;2022-12-11T00:44:50;48.63;;;25.07;;
17441;SDS011;8838;50.144;8.176;2022-12-11T00:47:17;46.60;;;24.53;;
17441;SDS011;8838;50.144;8.176;2022-12-11T00:49:44;48.30;;;25.90;;
17441;SDS011;8838;50.144;8.176;2022-12-11T00:52:11;47.63;;;25.57;;
17441;SDS011;8838;50.144;8.176;2022-12-11T00:54:38;50.60;;;25.60;;
17441;SDS011;8838;50.144;8.176;2022-12-11T00:57:05;47.00;;;24.83;;
17441;SDS011;8838;50.144;8.176;2022-12-11T00:59:33;50.00;;;25.23;;
17441;SDS011;8838;50.144;8.176;2022-12-11T01:02:00;48.83;;;25.23;;
17441;SDS011;8838;50.144;8.176;2022-12-11T01:04:28;47.70;;;24.57;;
17441;SDS011;8838;50.144;8.176;2022-12-11T01:06:55;50.47;;;25.70;;
17441;SDS011;8838;50.144;8.176;2022-12-11T01:09:22;52.50;;;25.73;;
17441;SDS011;8838;50.144;8.176;2022-12-11T01:12:06;48.00;;;24.33;;
17441;SDS011;8838;50.144;8.176;2022-12-11T01:14:35;50.03;;;24.90;;
17441;SDS011;8838;50.144;8.176;2022-12-11T01:17:01;48.63;;;25.37;;
17441;SDS011;8838;50.144;8.176;2022-12-11T01:19:28;51.37;;;26.27;;
17441;SDS011;8838;50.144;8.176;2022-12-11T01:21:55;48.20;;;24.67;;
17441;SDS011;8838;50.144;8.176;2022-12-11T01:24:25;49.10;;;25.07;;
17441;SDS011;8838;50.144;8.176;2022-12-11T01:26:52;47.90;;;23.60;;
17441;SDS011;8838;50.144;8.176;2022-12-11T01:29:19;44.03;;;23.30;;
17441;SDS011;8838;50.144;8.176;2022-12-11T01:31:47;45.57;;;24.27;;
17441;SDS011;8838;50.144;8.176;2022-12-11T01:34:14;46.57;;;25.03;;
17441;SDS011;8838;50.144;8.176;2022-12-11T01:36:41;51.63;;;25.63;;
17441;SDS011;8838;50.144;8.176;2022-12-11T01:39:08;49.03;;;24.90;;
17441;SDS011;8838;50.144;8.176;2022-12-11T01:41:35;50.27;;;25.87;;
17441;SDS011;8838;50.144;8.176;2022-12-11T01:44:05;45.87;;;23.77;;
17441;SDS011;8838;50.144;8.176;2022-12-11T01:46:34;48.40;;;25.40;;
17441;SDS011;8838;50.144;8.176;2022-12-11T01:49:05;48.53;;;25.60;;
17441;SDS011;8838;50.144;8.176;2022-12-11T01:51:35;46.17;;;24.60;;
17441;SDS011;8838;50.144;8.176;2022-12-11T01:54:08;52.63;;;25.07;;
17441;SDS011;8838;50.144;8.176;2022-12-11T01:56:37;54.60;;;27.47;;
17441;SDS011;8838;50.144;8.176;2022-12-11T01:59:07;54.57;;;27.40;;
17441;SDS011;8838;50.144;8.176;2022-12-11T02:01:36;51.33;;;26.43;;
17441;SDS011;8838;50.144;8.176;2022-12-11T02:04:07;59.50;;;28.70;;
17441;SDS011;8838;50.144;8.176;2022-12-11T02:06:36;52.07;;;28.13;;
17441;SDS011;8838;50.144;8.176;2022-12-11T02:09:05;50.63;;;27.07;;
17441;SDS011;8838;50.144;8.176;2022-12-11T02:11:38;51.70;;;26.47;;
17441;SDS011;8838;50.144;8.176;2022-12-11T02:14:15;50.90;;;26.30;;
17441;SDS011;8838;50.144;8.176;2022-12-11T02:16:52;54.00;;;27.13;;
17441;SDS011;8838;50.144;8.176;2022-12-11T02:19:30;54.60;;;26.93;;
17441;SDS011;8838;50.144;8.176;2022-12-11T02:22:10;54.90;;;27.07;;
17441;SDS011;8838;50.144;8.176;2022-12-11T02:24:48;57.70;;;29.00;;
17441;SDS011;8838;50.144;8.176;2022-12-11T02:27:27;53.17;;;27.97;;
17441;SDS011;8838;50.144;8.176;2022-12-11T02:30:02;52.47;;;27.50;;
17441;SDS011;8838;50.144;8.176;2022-12-11T02:32:32;58.77;;;29.10;;
17441;SDS011;8838;50.144;8.176;2022-12-11T02:35:05;55.97;;;27.67;;
17441;SDS011;8838;50.144;8.176;2022-12-11T02:37:40;52.03;;;26.80;;
17441;SDS011;8838;50.144;8.176;2022-12-11T02:40:10;47.07;;;26.07;;
17441;SDS011;8838;50.144;8.176;2022-12-11T02:42:41;54.70;;;26.73;;
17441;SDS011;8838;50.144;8.176;2022-12-11T02:45:10;53.17;;;27.10;;
17441;SDS011;8838;50.144;8.176;2022-12-11T02:47:39;51.47;;;27.13;;
17441;SDS011;8838;50.144;8.176;2022-12-11T02:50:08;50.70;;;26.53;;
17441;SDS011;8838;50.144;8.176;2022-12-11T02:52:38;52.37;;;27.23;;
17441;SDS011;8838;50.144;8.176;2022-12-11T02:55:08;55.10;;;28.00;;
17441;SDS011;8838;50.144;8.176;2022-12-11T02:57:39;54.83;;;27.63;;
17441;SDS011;8838;50.144;8.176;2022-12-11T03:00:14;54.53;;;27.87;;
17441;SDS011;8838;50.144;8.176;2022-12-11T03:02:42;54.33;;;27.43;;
17441;SDS011;8838;50.144;8.176;2022-12-11T03:05:11;56.33;;;29.27;;
17441;SDS011;8838;50.144;8.176;2022-12-11T03:07:39;53.20;;;28.00;;
17441;SDS011;8838;50.144;8.176;2022-12-11T03:10:07;58.20;;;29.20;;
17441;SDS011;8838;50.144;8.176;2022-12-11T03:12:37;51.90;;;26.60;;
17441;SDS011;8838;50.144;8.176;2022-12-11T03:15:08;56.43;;;28.10;;
17441;SDS011;8838;50.144;8.176;2022-12-11T03:17:44;63.07;;;30.03;;
17441;SDS011;8838;50.144;8.176;2022-12-11T03:20:24;56.67;;;29.47;;
17441;SDS011;8838;50.144;8.176;2022-12-11T03:22:56;56.30;;;27.77;;
17441;SDS011;8838;50.144;8.176;2022-12-11T03:25:31;55.83;;;28.80;;
17441;SDS011;8838;50.144;8.176;2022-12-11T03:28:08;56.63;;;28.53;;
17441;SDS011;8838;50.144;8.176;2022-12-11T03:30:39;56.30;;;27.27;;
17441;SDS011;8838;50.144;8.176;2022-12-11T03:33:08;58.67;;;28.50;;
17441;SDS011;8838;50.144;8.176;2022-12-11T03:35:39;53.90;;;26.83;;
17441;SDS011;8838;50.144;8.176;2022-12-11T03:38:10;51.17;;;26.50;;
17441;SDS011;8838;50.144;8.176;2022-12-11T03:40:41;51.40;;;26.03;;
17441;SDS011;8838;50.144;8.176;2022-12-11T03:43:11;50.23;;;26.13;;
17441;SDS011;8838;50.144;8.176;2022-12-11T03:45:41;50.80;;;26.03;;
17441;SDS011;8838;50.144;8.176;2022-12-11T03:48:10;52.93;;;27.13;;
17441;SDS011;8838;50.144;8.176;2022-12-11T03:50:39;50.20;;;24.23;;
17441;SDS011;8838;50.144;8.176;2022-12-11T03:53:08;50.93;;;24.73;;
17441;SDS011;8838;50.144;8.176;2022-12-11T03:55:36;49.17;;;24.63;;
17441;SDS011;8838;50.144;8.176;2022-12-11T03:58:04;52.00;;;25.60;;
17441;SDS011;8838;50.144;8.176;2022-12-11T04:00:32;50.37;;;25.20;;
17441;SDS011;8838;50.144;8.176;2022-12-11T04:03:00;50.17;;;25.30;;
17441;SDS011;8838;50.144;8.176;2022-12-11T04:05:40;53.60;;;26.17;;
17441;SDS011;8838;50.144;8.176;2022-12-11T04:08:08;52.90;;;25.73;;
17441;SDS011;8838;50.144;8.176;2022-12-11T04:10:35;51.17;;;25.63;;
17441;SDS011;8838;50.144;8.176;2022-12-11T04:13:02;51.77;;;26.57;;
17441;SDS011;8838;50.144;8.176;2022-12-11T04:15:29;54.00;;;27.53;;
17441;SDS011;8838;50.144;8.176;2022-12-11T04:17:55;57.60;;;28.70;;
17441;SDS011;8838;50.144;8.176;2022-12-11T04:20:41;53.50;;;26.70;;
17441;SDS011;8838;50.144;8.176;2022-12-11T04:23:25;52.40;;;26.20;;
17441;SDS011;8838;50.144;8.176;2022-12-11T04:26:10;52.63;;;26.60;;
17441;SDS011;8838;50.144;8.176;2022-12-11T04:28:38;57.47;;;28.17;;
17441;SDS011;8838;50.144;8.176;2022-12-11T04:31:05;53.43;;;28.40;;
17441;SDS011;8838;50.144;8.176;2022-12-11T04:33:36;58.17;;;28.37;;
17441;SDS011;8838;50.144;8.176;2022-12-11T04:36:05;58.10;;;28.90;;
17441;SDS011;8838;50.144;8.176;2022-12-11T04:38:32;58.13;;;28.63;;
17441;SDS011;8838;50.144;8.176;2022-12-11T04:41:00;57.50;;;28.67;;
17441;SDS011;8838;50.144;8.176;2022-12-11T04:43:29;60.03;;;28.60;;
17441;SDS011;8838;50.144;8.176;2022-12-11T04:45:59;56.97;;;28.20;;
17441;SDS011;8838;50.144;8.176;2022-12-11T04:48:27;55.73;;;26.90;;
17441;SDS011;8838;50.144;8.176;2022-12-11T04:50:54;56.83;;;28.17;;
17441;SDS011;8838;50.144;8.176;2022-12-11T04:53:22;53.27;;;28.10;;
17441;SDS011;8838;50.144;8.176;2022-12-11T04:55:50;55.33;;;26.93;;
17441;SDS011;8838;50.144;8.176;2022-12-11T04:58:17;60.87;;;28.57;;
17441;SDS011;8838;50.144;8.176;2022-12-11T05:00:44;61.33;;;27.77;;
17441;SDS011;8838;50.144;8.176;2022-12-11T05:03:11;54.63;;;26.43;;
17441;SDS011;8838;50.144;8.176;2022-12-11T05:05:38;57.93;;;27.83;;
17441;SDS011;8838;50.144;8.176;2022-12-11T05:08:05;56.63;;;26.87;;
17441;SDS011;8838;50.144;8.176;2022-12-11T05:10:33;57.07;;;27.17;;
17441;SDS011;8838;50.144;8.176;2022-12-11T05:13:00;52.23;;;26.37;;
17441;SDS011;8838;50.144;8.176;2022-12-11T05:15:27;58.53;;;28.33;;
17441;SDS011;8838;50.144;8.176;2022-12-11T05:17:54;60.20;;;28.03;;
17441;SDS011;8838;50.144;8.176;2022-12-11T05:20:21;63.07;;;28.73;;
17441;SDS011;8838;50.144;8.176;2022-12-11T05:22:48;63.47;;;29.57;;
17441;SDS011;8838;50.144;8.176;2022-12-11T05:25:15;59.83;;;28.53;;
17441;SDS011;8838;50.144;8.176;2022-12-11T05:27:43;63.70;;;29.63;;
17441;SDS011;8838;50.144;8.176;2022-12-11T05:30:10;60.30;;;28.20;;
17441;SDS011;8838;50.144;8.176;2022-12-11T05:32:37;61.97;;;29.20;;
17441;SDS011;8838;50.144;8.176;2022-12-11T05:35:05;58.93;;;28.33;;
17441;SDS011;8838;50.144;8.176;2022-12-11T05:37:32;65.80;;;29.43;;
17441;SDS011;8838;50.144;8.176;2022-12-11T05:39:59;64.13;;;29.60;;
17441;SDS011;8838;50.144;8.176;2022-12-11T05:42:27;63.33;;;29.40;;
17441;SDS011;8838;50.144;8.176;2022-12-11T05:44:55;66.53;;;30.17;;
17441;SDS011;8838;50.144;8.176;2022-12-11T05:47:22;68.27;;;31.47;;
17441;SDS011;8838;50.144;8.176;2022-12-11T05:49:49;73.90;;;32.47;;
17441;SDS011;8838;50.144;8.176;2022-12-11T05:52:16;71.30;;;30.97;;
17441;SDS011;8838;50.144;8.176;2022-12-11T05:54:43;70.47;;;31.47;;
17441;SDS011;8838;50.144;8.176;2022-12-11T05:57:13;70.77;;;31.03;;
17441;SDS011;8838;50.144;8.176;2022-12-11T05:59:40;65.53;;;30.83;;
17441;SDS011;8838;50.144;8.176;2022-12-11T06:02:08;63.53;;;27.73;;
17441;SDS011;8838;50.144;8.176;2022-12-11T06:04:35;61.90;;;27.00;;
17441;SDS011;8838;50.144;8.176;2022-12-11T06:07:02;60.07;;;26.37;;
17441;SDS011;8838;50.144;8.176;2022-12-11T06:09:28;67.60;;;28.77;;
17441;SDS011;8838;50.144;8.176;2022-12-11T06:11:55;65.57;;;27.10;;
17441;SDS011;8838;50.144;8.176;2022-12-11T06:14:22;62.47;;;27.57;;
17441;SDS011;8838;50.144;8.176;2022-12-11T06:16:49;56.90;;;25.30;;
17441;SDS011;8838;50.144;8.176;2022-12-11T06:19:17;60.70;;;26.20;;
17441;SDS011;8838;50.144;8.176;2022-12-11T06:21:44;57.37;;;25.83;;
17441;SDS011;8838;50.144;8.176;2022-12-11T06:24:13;66.60;;;26.90;;
17441;SDS011;8838;50.144;8.176;2022-12-11T06:26:40;53.37;;;24.47;;
17441;SDS011;8838;50.144;8.176;2022-12-11T06:29:07;58.93;;;26.40;;
17441;SDS011;8838;50.144;8.176;2022-12-11T06:31:33;58.27;;;25.60;;
17441;SDS011;8838;50.144;8.176;2022-12-11T06:34:01;57.23;;;24.83;;
17441;SDS011;8838;50.144;8.176;2022-12-11T06:36:29;51.43;;;23.67;;
17441;SDS011;8838;50.144;8.176;2022-12-11T06:38:56;49.17;;;22.73;;
17441;SDS011;8838;50.144;8.176;2022-12-11T06:41:23;49.70;;;23.57;;
17441;SDS011;8838;50.144;8.176;2022-12-11T06:43:49;51.73;;;23.30;;
17441;SDS011;8838;50.144;8.176;2022-12-11T06:46:17;50.37;;;22.03;;
17441;SDS011;8838;50.144;8.176;2022-12-11T06:48:45;53.40;;;23.97;;
17441;SDS011;8838;50.144;8.176;2022-12-11T06:51:13;53.13;;;23.40;;
17441;SDS011;8838;50.144;8.176;2022-12-11T06:53:44;55.60;;;24.43;;
17441;SDS011;8838;50.144;8.176;2022-12-11T06:56:15;58.17;;;25.40;;
17441;SDS011;8838;50.144;8.176;2022-12-11T06:58:42;60.37;;;26.33;;
17441;SDS011;8838;50.144;8.176;2022-12-11T07:01:17;61.30;;;26.83;;
17441;SDS011;8838;50.144;8.176;2022-12-11T07:03:46;60.60;;;27.23;;
17441;SDS011;8838;50.144;8.176;2022-12-11T07:06:13;60.83;;;28.10;;
17441;SDS011;8838;50.144;8.176;2022-12-11T07:08:40;59.03;;;28.60;;
17441;SDS011;8838;50.144;8.176;2022-12-11T07:11:11;61.07;;;29.77;;
17441;SDS011;8838;50.144;8.176;2022-12-11T07:13:39;62.90;;;29.03;;
17441;SDS011;8838;50.144;8.176;2022-12-11T07:16:07;60.40;;;28.77;;
17441;SDS011;8838;50.144;8.176;2022-12-11T07:18:35;63.53;;;28.97;;
17441;SDS011;8838;50.144;8.176;2022-12-11T07:21:03;64.13;;;28.83;;
17441;SDS011;8838;50.144;8.176;2022-12-11T07:23:31;56.53;;;27.77;;
17441;SDS011;8838;50.144;8.176;2022-12-11T07:26:02;59.70;;;27.80;;
17441;SDS011;8838;50.144;8.176;2022-12-11T07:28:31;47.20;;;25.97;;
17441;SDS011;8838;50.144;8.176;2022-12-11T07:30:58;52.23;;;25.87;;
17441;SDS011;8838;50.144;8.176;2022-12-11T07:33:25;49.13;;;26.43;;
17441;SDS011;8838;50.144;8.176;2022-12-11T07:35:53;48.70;;;24.50;;
17441;SDS011;8838;50.144;8.176;2022-12-11T07:38:20;50.20;;;24.63;;
17441;SDS011;8838;50.144;8.176;2022-12-11T07:40:47;50.90;;;24.70;;
17441;SDS011;8838;50.144;8.176;2022-12-11T07:43:14;52.43;;;26.30;;
17441;SDS011;8838;50.144;8.176;2022-12-11T07:45:42;54.97;;;26.03;;
17441;SDS011;8838;50.144;8.176;2022-12-11T07:48:09;53.60;;;25.70;;
17441;SDS011;8838;50.144;8.176;2022-12-11T07:50:36;53.60;;;24.63;;
17441;SDS011;8838;50.144;8.176;2022-12-11T07:53:03;49.00;;;23.83;;
17441;SDS011;8838;50.144;8.176;2022-12-11T07:55:30;46.10;;;22.10;;
17441;SDS011;8838;50.144;8.176;2022-12-11T07:57:59;41.97;;;20.20;;
17441;SDS011;8838;50.144;8.176;2022-12-11T08:00:25;46.60;;;21.43;;
17441;SDS011;8838;50.144;8.176;2022-12-11T08:02:54;41.10;;;19.67;;
17441;SDS011;8838;50.144;8.176;2022-12-11T08:05:21;44.33;;;20.13;;
17441;SDS011;8838;50.144;8.176;2022-12-11T08:07:48;41.30;;;20.57;;
17441;SDS011;8838;50.144;8.176;2022-12-11T08:10:15;42.97;;;20.83;;
17441;SDS011;8838;50.144;8.176;2022-12-11T08:12:42;42.57;;;20.73;;
17441;SDS011;8838;50.144;8.176;2022-12-11T08:15:09;41.67;;;20.53;;
17441;SDS011;8838;50.144;8.176;2022-12-11T08:17:36;47.03;;;21.57;;
17441;SDS011;8838;50.144;8.176;2022-12-11T08:20:05;43.50;;;20.63;;
17441;SDS011;8838;50.144;8.176;2022-12-11T08:22:33;42.13;;;21.07;;
17441;SDS011;8838;50.144;8.176;2022-12-11T08:25:00;39.43;;;19.17;;
17441;SDS011;8838;50.144;8.176;2022-12-11T08:27:27;41.63;;;19.70;;
17441;SDS011;8838;50.144;8.176;2022-12-11T08:29:54;39.20;;;20.43;;
17441;SDS011;8838;50.144;8.176;2022-12-11T08:32:21;43.27;;;19.57;;
17441;SDS011;8838;50.144;8.176;2022-12-11T08:34:49;36.70;;;19.87;;
17441;SDS011;8838;50.144;8.176;2022-12-11T08:37:17;37.33;;;17.97;;
17441;SDS011;8838;50.144;8.176;2022-12-11T08:39:44;34.27;;;18.13;;
17441;SDS011;8838;50.144;8.176;2022-12-11T08:42:12;36.50;;;17.70;;
17441;SDS011;8838;50.144;8.176;2022-12-11T08:44:39;32.03;;;16.93;;
17441;SDS011;8838;50.144;8.176;2022-12-11T08:47:05;37.33;;;18.60;;
17441;SDS011;8838;50.144;8.176;2022-12-11T08:49:33;35.53;;;18.03;;
17441;SDS011;8838;50.144;8.176;2022-12-11T08:52:01;35.00;;;18.17;;
17441;SDS011;8838;50.144;8.176;2022-12-11T08:54:30;32.47;;;17.17;;
17441;SDS011;8838;50.144;8.176;2022-12-11T08:56:57;38.43;;;18.50;;
17441;SDS011;8838;50.144;8.176;2022-12-11T08:59:24;34.27;;;17.47;;
17441;SDS011;8838;50.144;8.176;2022-12-11T09:01:51;33.10;;;17.43;;
17441;SDS011;8838;50.144;8.176;2022-12-11T09:04:21;26.90;;;14.17;;
17441;SDS011;8838;50.144;8.176;2022-12-11T09:06:50;25.10;;;14.53;;
17441;SDS011;8838;50.144;8.176;2022-12-11T09:09:22;27.10;;;14.67;;
17441;SDS011;8838;50.144;8.176;2022-12-11T09:11:53;27.53;;;14.23;;
17441;SDS011;8838;50.144;8.176;2022-12-11T09:14:20;25.90;;;13.53;;
17441;SDS011;8838;50.144;8.176;2022-12-11T09:16:48;26.73;;;12.90;;
17441;SDS011;8838;50.144;8.176;2022-12-11T09:19:15;27.10;;;13.50;;
17441;SDS011;8838;50.144;8.176;2022-12-11T09:21:42;23.43;;;13.23;;
17441;SDS011;8838;50.144;8.176;2022-12-11T09:24:09;26.50;;;14.17;;
17441;SDS011;8838;50.144;8.176;2022-12-11T09:26:37;25.67;;;13.57;;
17441;SDS011;8838;50.144;8.176;2022-12-11T09:29:06;25.93;;;14.27;;
17441;SDS011;8838;50.144;8.176;2022-12-11T09:31:34;26.23;;;13.90;;
17441;SDS011;8838;50.144;8.176;2022-12-11T09:34:03;28.63;;;13.50;;
17441;SDS011;8838;50.144;8.176;2022-12-11T09:36:31;26.23;;;13.97;;
17441;SDS011;8838;50.144;8.176;2022-12-11T09:38:59;34.07;;;17.23;;
17441;SDS011;8838;50.144;8.176;2022-12-11T09:41:36;29.33;;;15.10;;
17441;SDS011;8838;50.144;8.176;2022-12-11T09:46:56;26.67;;;14.67;;
17441;SDS011;8838;50.144;8.176;2022-12-11T09:49:25;27.47;;;13.83;;
17441;SDS011;8838;50.144;8.176;2022-12-11T09:51:59;26.33;;;12.57;;
17441;SDS011;8838;50.144;8.176;2022-12-11T09:54:31;45.27;;;28.23;;
17441;SDS011;8838;50.144;8.176;2022-12-11T09:57:01;28.43;;;14.53;;
17441;SDS011;8838;50.144;8.176;2022-12-11T09:59:39;28.23;;;13.77;;
17441;SDS011;8838;50.144;8.176;2022-12-11T10:02:21;26.40;;;14.33;;
17441;SDS011;8838;50.144;8.176;2022-12-11T10:05:01;27.70;;;14.43;;
17441;SDS011;8838;50.144;8.176;2022-12-11T10:07:40;27.17;;;14.13;;
17441;SDS011;8838;50.144;8.176;2022-12-11T10:10:16;31.90;;;15.50;;
17441;SDS011;8838;50.144;8.176;2022-12-11T10:12:56;31.77;;;15.63;;
17441;SDS011;8838;50.144;8.176;2022-12-11T10:15:31;29.53;;;14.60;;
17441;SDS011;8838;50.144;8.176;2022-12-11T10:18:03;29.73;;;14.40;;
17441;SDS011;8838;50.144;8.176;2022-12-11T10:20:35;31.43;;;14.33;;
17441;SDS011;8838;50.144;8.176;2022-12-11T10:23:05;29.60;;;14.53;;
17441;SDS011;8838;50.144;8.176;2022-12-11T10:25:34;33.17;;;15.63;;
17441;SDS011;8838;50.144;8.176;2022-12-11T10:28:08;32.07;;;14.93;;
17441;SDS011;8838;50.144;8.176;2022-12-11T10:30:40;28.20;;;14.10;;
17441;SDS011;8838;50.144;8.176;2022-12-11T10:33:14;28.07;;;14.47;;
17441;SDS011;8838;50.144;8.176;2022-12-11T10:35:48;29.83;;;15.33;;
17441;SDS011;8838;50.144;8.176;2022-12-11T10:38:20;31.70;;;15.60;;
17441;SDS011;8838;50.144;8.176;2022-12-11T10:40:50;29.63;;;14.67;;
17441;SDS011;8838;50.144;8.176;2022-12-11T10:43:18;33.37;;;15.90;;
17441;SDS011;8838;50.144;8.176;2022-12-11T10:45:58;28.10;;;14.50;;
17441;SDS011;8838;50.144;8.176;2022-12-11T10:48:24;31.27;;;15.90;;
17441;SDS011;8838;50.144;8.176;2022-12-11T10:50:56;31.57;;;15.40;;
17441;SDS011;8838;50.144;8.176;2022-12-11T10:53:26;30.67;;;14.77;;
17441;SDS011;8838;50.144;8.176;2022-12-11T10:55:53;29.70;;;15.73;;
17441;SDS011;8838;50.144;8.176;2022-12-11T10:58:22;28.03;;;14.93;;
17441;SDS011;8838;50.144;8.176;2022-12-11T11:01:01;31.47;;;15.33;;
17441;SDS011;8838;50.144;8.176;2022-12-11T11:03:32;31.60;;;15.10;;
17441;SDS011;8838;50.144;8.176;2022-12-11T11:06:01;30.17;;;15.40;;
17441;SDS011;8838;50.144;8.176;2022-12-11T11:08:36;31.33;;;15.67;;
17441;SDS011;8838;50.144;8.176;2022-12-11T11:11:05;31.80;;;16.50;;
17441;SDS011;8838;50.144;8.176;2022-12-11T11:13:45;30.00;;;15.90;;
17441;SDS011;8838;50.144;8.176;2022-12-11T11:16:14;30.57;;;15.87;;
17441;SDS011;8838;50.144;8.176;2022-12-11T11:18:48;28.30;;;15.10;;
17441;SDS011;8838;50.144;8.176;2022-12-11T11:21:19;33.20;;;16.03;;
17441;SDS011;8838;50.144;8.176;2022-12-11T11:23:47;30.20;;;14.57;;
17441;SDS011;8838;50.144;8.176;2022-12-11T11:26:14;31.70;;;15.93;;
17441;SDS011;8838;50.144;8.176;2022-12-11T11:28:41;33.20;;;16.27;;
17441;SDS011;8838;50.144;8.176;2022-12-11T11:31:15;34.87;;;16.80;;
17441;SDS011;8838;50.144;8.176;2022-12-11T11:33:44;31.47;;;16.03;;
17441;SDS011;8838;50.144;8.176;2022-12-11T11:36:18;37.27;;;18.10;;
17441;SDS011;8838;50.144;8.176;2022-12-11T11:38:48;31.40;;;15.83;;
17441;SDS011;8838;50.144;8.176;2022-12-11T11:41:23;31.07;;;15.97;;
17441;SDS011;8838;50.144;8.176;2022-12-11T11:43:53;34.53;;;15.73;;
17441;SDS011;8838;50.144;8.176;2022-12-11T11:46:25;32.97;;;16.67;;
17441;SDS011;8838;50.144;8.176;2022-12-11T11:48:57;30.27;;;15.93;;
17441;SDS011;8838;50.144;8.176;2022-12-11T11:51:31;36.37;;;16.67;;
17441;SDS011;8838;50.144;8.176;2022-12-11T11:54:06;35.77;;;17.33;;
17441;SDS011;8838;50.144;8.176;2022-12-11T11:56:49;35.23;;;17.27;;
17441;SDS011;8838;50.144;8.176;2022-12-11T11:59:20;32.07;;;16.47;;
17441;SDS011;8838;50.144;8.176;2022-12-11T12:01:56;31.37;;;17.03;;
17441;SDS011;8838;50.144;8.176;2022-12-11T12:04:24;31.83;;;16.73;;
17441;SDS011;8838;50.144;8.176;2022-12-11T12:06:59;31.13;;;16.10;;
17441;SDS011;8838;50.144;8.176;2022-12-11T12:09:44;33.10;;;17.73;;
17441;SDS011;8838;50.144;8.176;2022-12-11T12:12:20;33.33;;;17.00;;
17441;SDS011;8838;50.144;8.176;2022-12-11T12:15:00;31.13;;;15.67;;
17441;SDS011;8838;50.144;8.176;2022-12-11T12:17:46;29.07;;;15.03;;
17441;SDS011;8838;50.144;8.176;2022-12-11T12:20:19;33.10;;;16.23;;
17441;SDS011;8838;50.144;8.176;2022-12-11T12:23:01;29.87;;;15.67;;
17441;SDS011;8838;50.144;8.176;2022-12-11T12:25:51;35.47;;;16.73;;
17441;SDS011;8838;50.144;8.176;2022-12-11T12:28:25;33.97;;;16.90;;
17441;SDS011;8838;50.144;8.176;2022-12-11T12:31:03;34.50;;;17.50;;
17441;SDS011;8838;50.144;8.176;2022-12-11T12:33:44;33.23;;;16.70;;
17441;SDS011;8838;50.144;8.176;2022-12-11T12:36:23;30.67;;;15.97;;
17441;SDS011;8838;50.144;8.176;2022-12-11T12:38:57;31.00;;;15.47;;
17441;SDS011;8838;50.144;8.176;2022-12-11T12:41:30;29.73;;;15.90;;
17441;SDS011;8838;50.144;8.176;2022-12-11T12:44:11;32.53;;;16.67;;
17441;SDS011;8838;50.144;8.176;2022-12-11T12:46:45;34.87;;;16.80;;
17441;SDS011;8838;50.144;8.176;2022-12-11T12:49:22;42.40;;;20.00;;
17441;SDS011;8838;50.144;8.176;2022-12-11T12:51:59;50.00;;;25.23;;
17441;SDS011;8838;50.144;8.176;2022-12-11T12:54:26;55.97;;;28.23;;
17441;SDS011;8838;50.144;8.176;2022-12-11T12:56:57;63.30;;;31.33;;
17441;SDS011;8838;50.144;8.176;2022-12-11T12:59:26;69.43;;;32.40;;
17441;SDS011;8838;50.144;8.176;2022-12-11T13:01:54;63.27;;;31.40;;
17441;SDS011;8838;50.144;8.176;2022-12-11T13:04:35;65.03;;;30.53;;
17441;SDS011;8838;50.144;8.176;2022-12-11T13:07:15;68.07;;;31.87;;
17441;SDS011;8838;50.144;8.176;2022-12-11T13:09:54;69.43;;;33.90;;
17441;SDS011;8838;50.144;8.176;2022-12-11T13:12:28;66.63;;;31.80;;
17441;SDS011;8838;50.144;8.176;2022-12-11T13:14:57;70.73;;;35.00;;
17441;SDS011;8838;50.144;8.176;2022-12-11T13:17:25;68.57;;;32.83;;
17441;SDS011;8838;50.144;8.176;2022-12-11T13:20:14;67.80;;;33.60;;
17441;SDS011;8838;50.144;8.176;2022-12-11T13:22:46;71.53;;;34.23;;
17441;SDS011;8838;50.144;8.176;2022-12-11T13:25:29;68.27;;;33.43;;
17441;SDS011;8838;50.144;8.176;2022-12-11T13:28:03;69.03;;;32.87;;
17441;SDS011;8838;50.144;8.176;2022-12-11T13:30:31;71.07;;;33.97;;
17441;SDS011;8838;50.144;8.176;2022-12-11T13:33:00;71.13;;;33.80;;
17441;SDS011;8838;50.144;8.176;2022-12-11T13:35:30;73.80;;;34.00;;
17441;SDS011;8838;50.144;8.176;2022-12-11T13:38:00;76.20;;;34.80;;
17441;SDS011;8838;50.144;8.176;2022-12-11T13:40:35;73.50;;;35.47;;
17441;SDS011;8838;50.144;8.176;2022-12-11T13:43:06;76.23;;;34.87;;
17441;SDS011;8838;50.144;8.176;2022-12-11T13:45:42;72.00;;;34.80;;
17441;SDS011;8838;50.144;8.176;2022-12-11T13:48:15;76.00;;;35.73;;
17441;SDS011;8838;50.144;8.176;2022-12-11T13:50:47;79.53;;;36.30;;
17441;SDS011;8838;50.144;8.176;2022-12-11T13:53:16;75.17;;;35.50;;
17441;SDS011;8838;50.144;8.176;2022-12-11T13:55:45;77.17;;;36.03;;
17441;SDS011;8838;50.144;8.176;2022-12-11T13:58:21;77.00;;;35.60;;
17441;SDS011;8838;50.144;8.176;2022-12-11T14:01:01;83.33;;;37.03;;
17441;SDS011;8838;50.144;8.176;2022-12-11T14:03:34;75.73;;;35.97;;
17441;SDS011;8838;50.144;8.176;2022-12-11T14:06:07;74.07;;;35.27;;
17441;SDS011;8838;50.144;8.176;2022-12-11T14:08:36;77.13;;;35.37;;
17441;SDS011;8838;50.144;8.176;2022-12-11T14:11:04;71.23;;;34.73;;
17441;SDS011;8838;50.144;8.176;2022-12-11T14:13:32;75.33;;;35.37;;
17441;SDS011;8838;50.144;8.176;2022-12-11T14:16:01;82.87;;;37.20;;
17441;SDS011;8838;50.144;8.176;2022-12-11T14:18:29;75.03;;;35.53;;
17441;SDS011;8838;50.144;8.176;2022-12-11T14:20:58;75.57;;;36.30;;
17441;SDS011;8838;50.144;8.176;2022-12-11T14:23:28;76.33;;;36.10;;
17441;SDS011;8838;50.144;8.176;2022-12-11T14:25:56;86.53;;;38.37;;
17441;SDS011;8838;50.144;8.176;2022-12-11T14:28:25;77.73;;;36.07;;
17441;SDS011;8838;50.144;8.176;2022-12-11T14:30:55;82.43;;;38.07;;
17441;SDS011;8838;50.144;8.176;2022-12-11T14:33:24;75.23;;;35.17;;
17441;SDS011;8838;50.144;8.176;2022-12-11T14:35:56;76.27;;;36.17;;
17441;SDS011;8838;50.144;8.176;2022-12-11T14:38:26;73.37;;;35.20;;
17441;SDS011;8838;50.144;8.176;2022-12-11T14:41:00;83.30;;;37.33;;
17441;SDS011;8838;50.144;8.176;2022-12-11T14:43:32;85.03;;;37.30;;
17441;SDS011;8838;50.144;8.176;2022-12-11T14:46:03;87.97;;;39.27;;
17441;SDS011;8838;50.144;8.176;2022-12-11T14:48:35;86.37;;;36.70;;
17441;SDS011;8838;50.144;8.176;2022-12-11T14:51:09;86.30;;;36.20;;
17441;SDS011;8838;50.144;8.176;2022-12-11T14:53:41;83.63;;;36.73;;